createdAt,value
2023-05-14T00:00:07.074Z,10.12
2023-05-14T00:01:08.950Z,10.15
2023-05-14T00:02:11.013Z,10.16
2023-05-14T00:03:12.968Z,10.19
2023-05-14T00:04:15.131Z,10.20
2023-05-14T00:05:16.984Z,10.21
2023-05-14T00:06:18.823Z,10.23
2023-05-14T00:07:20.810Z,10.22
2023-05-14T00:08:22.660Z,10.18
2023-05-14T00:09:24.661Z,10.09
2023-05-14T00:10:27.721Z,10.07
2023-05-14T00:11:29.558Z,10.05
2023-05-14T00:12:32.516Z,10.05
2023-05-14T00:13:34.292Z,10.05
2023-05-14T00:14:36.144Z,10.06
2023-05-14T00:15:38.185Z,10.09
2023-05-14T00:16:40.051Z,10.08
2023-05-14T00:17:42.899Z,10.07
2023-05-14T00:18:44.777Z,9.98
2023-05-14T00:19:46.623Z,9.99
2023-05-14T00:20:48.433Z,10.00
2023-05-14T00:21:50.274Z,10.01
2023-05-14T00:22:52.266Z,10.01
2023-05-14T00:23:54.081Z,10.03
2023-05-14T00:24:56.024Z,10.02
2023-05-14T00:25:57.885Z,10.01
2023-05-14T00:26:59.708Z,10.03
2023-05-14T00:28:01.605Z,10.02
2023-05-14T00:29:03.503Z,10.01
2023-05-14T00:30:06.785Z,9.96
2023-05-14T00:31:08.895Z,9.96
2023-05-14T00:32:11.277Z,9.96
2023-05-14T00:33:13.174Z,9.95
2023-05-14T00:34:15.001Z,9.97
2023-05-14T00:35:16.884Z,9.93
2023-05-14T00:36:18.684Z,9.92
2023-05-14T00:37:20.654Z,9.89
2023-05-14T00:38:24.442Z,9.90
2023-05-14T00:39:26.345Z,9.90
2023-05-14T00:40:28.546Z,9.90
2023-05-14T00:41:30.431Z,9.86
2023-05-14T00:42:32.528Z,9.86
2023-05-14T00:43:34.402Z,9.87
2023-05-14T00:44:36.244Z,9.88
2023-05-14T00:45:39.040Z,9.85
2023-05-14T00:46:41.090Z,9.78
2023-05-14T00:47:43.221Z,9.78
2023-05-14T00:48:45.588Z,9.79
2023-05-14T00:49:47.517Z,9.77
2023-05-14T00:50:50.123Z,9.76
2023-05-14T00:51:52.792Z,9.74
2023-05-14T00:52:54.741Z,9.72
2023-05-14T00:53:56.819Z,9.72
2023-05-14T00:54:59.135Z,9.71
2023-05-14T00:56:01.018Z,9.67
2023-05-14T00:57:03.632Z,9.65
2023-05-14T00:58:08.010Z,9.66
2023-05-14T00:59:09.851Z,9.64
2023-05-14T01:00:12.542Z,9.60
2023-05-14T01:01:15.598Z,9.57
2023-05-14T01:02:17.511Z,9.55
2023-05-14T01:03:19.580Z,9.56
2023-05-14T01:04:21.591Z,9.55
2023-05-14T01:05:26.322Z,9.53
2023-05-14T01:06:52.172Z,9.51
2023-05-14T01:08:08.615Z,9.50
2023-05-14T01:09:22.802Z,9.51
2023-05-14T01:10:24.828Z,9.52
2023-05-14T01:11:30.883Z,9.50
2023-05-14T01:12:44.639Z,9.52
2023-05-14T01:13:56.421Z,9.54
2023-05-14T01:15:07.676Z,9.55
2023-05-14T01:16:12.635Z,9.55
2023-05-14T01:17:15.075Z,9.52
2023-05-14T01:18:18.454Z,9.48
2023-05-14T01:19:30.160Z,9.47
2023-05-14T01:20:32.072Z,9.49
2023-05-14T01:21:43.263Z,9.52
2023-05-14T01:22:45.232Z,9.46
2023-05-14T01:23:47.035Z,9.47
2023-05-14T01:24:48.954Z,9.47
2023-05-14T01:25:51.018Z,9.43
2023-05-14T01:26:53.702Z,9.40
2023-05-14T01:28:06.173Z,9.40
2023-05-14T01:29:16.642Z,9.34
2023-05-14T01:30:18.509Z,9.32
2023-05-14T01:31:25.536Z,9.34
2023-05-14T01:32:28.176Z,9.36
2023-05-14T01:33:31.112Z,9.36
2023-05-14T01:34:33.800Z,9.38
2023-05-14T01:35:35.905Z,9.41
2023-05-14T01:36:39.603Z,9.44
2023-05-14T01:37:42.140Z,9.45
2023-05-14T01:38:46.036Z,9.45
2023-05-14T01:39:48.763Z,9.47
2023-05-14T01:40:51.153Z,9.48
2023-05-14T01:41:53.930Z,9.49
2023-05-14T01:42:56.854Z,9.50
2023-05-14T01:43:58.863Z,9.51
2023-05-14T01:45:01.102Z,9.51
2023-05-14T01:46:05.123Z,9.46
2023-05-14T01:47:07.046Z,9.38
2023-05-14T01:48:08.941Z,9.29
2023-05-14T01:49:10.991Z,9.30
2023-05-14T01:50:12.888Z,9.30
2023-05-14T01:51:15.033Z,9.30
2023-05-14T01:52:17.845Z,9.30
2023-05-14T01:53:19.668Z,9.33
2023-05-14T01:54:21.530Z,9.31
2023-05-14T01:55:26.783Z,9.32
2023-05-14T01:56:28.642Z,9.23
2023-05-14T01:57:30.663Z,9.16
2023-05-14T01:58:32.488Z,9.15
2023-05-14T01:59:34.283Z,9.18
2023-05-14T02:00:36.165Z,9.23
2023-05-14T02:01:38.169Z,9.20
2023-05-14T02:02:40.153Z,9.20
2023-05-14T02:03:42.073Z,9.19
2023-05-14T02:04:43.985Z,9.23
2023-05-14T02:05:45.836Z,9.29
2023-05-14T02:06:47.710Z,9.30
2023-05-14T02:07:49.599Z,9.31
2023-05-14T02:08:51.500Z,9.34
2023-05-14T02:09:53.356Z,9.37
2023-05-14T02:10:55.180Z,9.38
2023-05-14T02:11:57.067Z,9.39
2023-05-14T02:12:58.944Z,9.43
2023-05-14T02:14:00.857Z,9.45
2023-05-14T02:15:03.991Z,9.44
2023-05-14T02:16:06.297Z,9.44
2023-05-14T02:17:08.334Z,9.44
2023-05-14T02:18:10.418Z,9.41
2023-05-14T02:19:12.385Z,9.38
2023-05-14T02:20:14.437Z,9.37
2023-05-14T02:21:16.361Z,9.33
2023-05-14T02:22:18.457Z,9.30
2023-05-14T02:23:25.617Z,9.29
2023-05-14T02:24:33.054Z,9.29
2023-05-14T02:25:35.604Z,9.28
2023-05-14T02:26:37.425Z,9.25
2023-05-14T02:27:39.317Z,9.24
2023-05-14T02:28:41.147Z,9.18
2023-05-14T02:29:42.978Z,9.15
2023-05-14T02:30:44.830Z,9.17
2023-05-14T02:31:46.690Z,9.18
2023-05-14T02:32:48.681Z,9.19
2023-05-14T02:33:50.575Z,9.20
2023-05-14T02:34:52.410Z,9.21
2023-05-14T02:35:54.420Z,9.19
2023-05-14T02:36:56.473Z,9.18
2023-05-14T02:38:00.113Z,9.17
2023-05-14T02:39:01.946Z,9.15
2023-05-14T02:40:04.644Z,9.13
2023-05-14T02:41:06.597Z,9.14
2023-05-14T02:42:08.424Z,9.14
2023-05-14T02:43:10.366Z,9.16
2023-05-14T02:44:12.189Z,9.18
2023-05-14T02:45:14.061Z,9.20
2023-05-14T02:46:16.140Z,9.23
2023-05-14T02:47:18.052Z,9.22
2023-05-14T02:48:19.969Z,9.21
2023-05-14T02:49:21.966Z,9.17
2023-05-14T02:50:24.045Z,9.08
2023-05-14T02:51:27.435Z,8.98
2023-05-14T02:52:29.326Z,8.96
2023-05-14T02:53:31.234Z,8.93
2023-05-14T02:54:33.059Z,8.93
2023-05-14T02:55:35.545Z,8.99
2023-05-14T02:56:37.499Z,9.03
2023-05-14T02:57:39.287Z,9.05
2023-05-14T02:58:41.460Z,9.08
2023-05-14T02:59:43.338Z,9.13
2023-05-14T03:00:45.894Z,9.13
2023-05-14T03:01:48.183Z,9.14
2023-05-14T03:02:50.804Z,9.20
2023-05-14T03:03:53.300Z,9.17
2023-05-14T03:04:55.195Z,9.16
2023-05-14T03:05:57.246Z,9.17
2023-05-14T03:06:59.126Z,9.20
2023-05-14T03:08:01.313Z,9.20
2023-05-14T03:09:03.325Z,9.21
2023-05-14T03:10:06.080Z,9.16
2023-05-14T03:11:07.843Z,9.14
2023-05-14T03:12:09.872Z,9.14
2023-05-14T03:13:11.860Z,9.14
2023-05-14T03:14:13.786Z,9.17
2023-05-14T03:15:15.696Z,9.11
2023-05-14T03:16:17.560Z,9.07
2023-05-14T03:17:19.514Z,9.07
2023-05-14T03:18:21.826Z,9.07
2023-05-14T03:19:23.692Z,9.09
2023-05-14T03:20:26.439Z,9.05
2023-05-14T03:21:28.292Z,9.01
2023-05-14T03:22:30.274Z,9.02
2023-05-14T03:23:35.241Z,9.05
2023-05-14T03:24:39.392Z,9.07
2023-05-14T03:25:41.642Z,9.09
2023-05-14T03:26:43.472Z,9.11
2023-05-14T03:27:45.353Z,9.07
2023-05-14T03:28:47.236Z,9.08
2023-05-14T03:29:49.145Z,9.07
2023-05-14T03:30:51.076Z,9.08
2023-05-14T03:31:53.326Z,9.07
2023-05-14T03:32:55.377Z,9.05
2023-05-14T03:33:57.310Z,9.04
2023-05-14T03:34:59.070Z,9.07
2023-05-14T03:36:00.989Z,9.00
2023-05-14T03:37:02.965Z,8.92
2023-05-14T03:38:04.893Z,8.89
2023-05-14T03:39:10.093Z,8.91
2023-05-14T03:40:12.177Z,8.96
2023-05-14T03:41:14.050Z,8.92
2023-05-14T03:42:15.977Z,8.92
2023-05-14T03:43:17.828Z,8.97
2023-05-14T03:44:19.610Z,9.02
2023-05-14T03:45:21.542Z,9.08
2023-05-14T03:46:23.393Z,9.12
2023-05-14T03:47:25.395Z,9.11
2023-05-14T03:48:27.455Z,9.08
2023-05-14T03:49:29.519Z,9.01
2023-05-14T03:50:31.385Z,8.99
2023-05-14T03:51:33.444Z,9.02
2023-05-14T03:52:35.341Z,9.04
2023-05-14T03:53:37.312Z,9.06
2023-05-14T03:54:41.419Z,9.06
2023-05-14T03:55:43.282Z,9.09
2023-05-14T03:56:45.197Z,9.14
2023-05-14T03:57:47.927Z,9.17
2023-05-14T03:58:49.796Z,9.16
2023-05-14T03:59:51.648Z,9.17
2023-05-14T04:00:53.531Z,9.18
2023-05-14T04:01:55.451Z,9.19
2023-05-14T04:02:57.327Z,9.22
2023-05-14T04:03:59.373Z,9.22
2023-05-14T04:05:01.298Z,9.24
2023-05-14T04:06:03.247Z,9.30
2023-05-14T04:07:05.082Z,9.32
2023-05-14T04:08:06.882Z,9.33
2023-05-14T04:09:08.840Z,9.29
2023-05-14T04:10:11.266Z,9.31
2023-05-14T04:11:13.096Z,9.32
2023-05-14T04:12:14.898Z,9.31
2023-05-14T04:13:16.728Z,9.30
2023-05-14T04:14:18.700Z,9.24
2023-05-14T04:15:20.650Z,9.15
2023-05-14T04:16:22.598Z,9.07
2023-05-14T04:17:24.540Z,9.05
2023-05-14T04:18:26.598Z,9.06
2023-05-14T04:19:28.596Z,9.11
2023-05-14T04:20:30.396Z,9.18
2023-05-14T04:21:32.433Z,9.23
2023-05-14T04:22:34.388Z,9.27
2023-05-14T04:23:36.245Z,9.34
2023-05-14T04:24:38.250Z,9.37
2023-05-14T04:25:40.102Z,9.36
2023-05-14T04:26:41.967Z,9.32
2023-05-14T04:27:43.876Z,9.35
2023-05-14T04:28:45.982Z,9.40
2023-05-14T04:29:48.469Z,9.42
2023-05-14T04:30:50.359Z,9.45
2023-05-14T04:31:52.197Z,9.49
2023-05-14T04:32:54.133Z,9.48
2023-05-14T04:33:56.029Z,9.47
2023-05-14T04:34:57.935Z,9.46
2023-05-14T04:35:59.811Z,9.45
2023-05-14T04:37:01.684Z,9.36
2023-05-14T04:38:03.779Z,9.34
2023-05-14T04:39:06.319Z,9.38
2023-05-14T04:40:09.105Z,9.43
2023-05-14T04:41:10.920Z,9.44
2023-05-14T04:42:12.898Z,9.37
2023-05-14T04:43:14.743Z,9.38
2023-05-14T04:44:17.284Z,9.37
2023-05-14T04:45:19.854Z,9.28
2023-05-14T04:46:21.721Z,9.17
2023-05-14T04:47:23.723Z,9.13
2023-05-14T04:48:26.066Z,9.16
2023-05-14T04:49:27.971Z,9.23
2023-05-14T04:50:29.948Z,9.28
2023-05-14T04:51:32.031Z,9.26
2023-05-14T04:52:33.961Z,9.27
2023-05-14T04:53:35.778Z,9.25
2023-05-14T04:54:37.712Z,9.24
2023-05-14T04:55:39.656Z,9.28
2023-05-14T04:56:41.489Z,9.36
2023-05-14T04:57:43.401Z,9.41
2023-05-14T04:58:45.252Z,9.47
2023-05-14T04:59:47.082Z,9.51
2023-05-14T05:00:49.179Z,9.57
2023-05-14T05:01:52.069Z,9.60
2023-05-14T05:02:53.994Z,9.61
2023-05-14T05:03:55.914Z,9.59
2023-05-14T05:04:57.795Z,9.57
2023-05-14T05:05:59.886Z,9.57
2023-05-14T05:07:01.726Z,9.55
2023-05-14T05:08:03.696Z,9.47
2023-05-14T05:09:05.612Z,9.47
2023-05-14T05:10:07.840Z,9.44
2023-05-14T05:11:09.757Z,9.39
2023-05-14T05:12:11.687Z,9.34
2023-05-14T05:13:13.657Z,9.32
2023-05-14T05:14:15.508Z,9.31
2023-05-14T05:15:17.388Z,9.30
2023-05-14T05:16:19.195Z,9.34
2023-05-14T05:17:21.045Z,9.38
2023-05-14T05:18:23.032Z,9.44
2023-05-14T05:19:35.917Z,9.43
2023-05-14T05:20:41.858Z,9.45
2023-05-14T05:21:43.937Z,9.51
2023-05-14T05:22:45.880Z,9.57
2023-05-14T05:23:47.753Z,9.64
2023-05-14T05:24:50.012Z,9.71
2023-05-14T05:25:52.338Z,9.77
2023-05-14T05:26:55.973Z,9.84
2023-05-14T05:27:57.931Z,9.87
2023-05-14T05:28:59.825Z,9.90
2023-05-14T05:30:02.105Z,9.93
2023-05-14T05:31:04.127Z,9.92
2023-05-14T05:32:06.381Z,9.94
2023-05-14T05:33:08.330Z,9.90
2023-05-14T05:34:10.179Z,9.89
2023-05-14T05:35:12.045Z,9.89
2023-05-14T05:36:13.962Z,9.86
2023-05-14T05:37:15.773Z,9.85
2023-05-14T05:38:18.663Z,9.85
2023-05-14T05:39:20.761Z,9.87
2023-05-14T05:40:22.848Z,9.88
2023-05-14T05:41:25.125Z,9.90
2023-05-14T05:42:27.051Z,9.93
2023-05-14T05:43:29.008Z,9.94
2023-05-14T05:44:30.980Z,9.95
2023-05-14T05:45:32.930Z,9.99
2023-05-14T05:46:34.862Z,9.99
2023-05-14T05:47:36.730Z,10.00
2023-05-14T05:48:38.600Z,10.01
2023-05-14T05:49:40.506Z,10.05
2023-05-14T05:50:44.531Z,10.10
2023-05-14T05:51:46.398Z,10.15
2023-05-14T05:52:48.350Z,10.16
2023-05-14T05:53:50.296Z,10.17
2023-05-14T05:54:52.288Z,10.12
2023-05-14T05:55:54.079Z,10.08
2023-05-14T05:56:56.089Z,10.13
2023-05-14T05:57:57.958Z,10.18
2023-05-14T05:58:59.890Z,10.23
2023-05-14T06:00:06.361Z,10.23
2023-05-14T06:01:08.363Z,10.20
2023-05-14T06:02:10.327Z,10.22
2023-05-14T06:03:12.265Z,10.25
2023-05-14T06:04:14.316Z,10.29
2023-05-14T06:05:16.358Z,10.30
2023-05-14T06:06:18.318Z,10.31
2023-05-14T06:07:20.211Z,10.24
2023-05-14T06:08:22.088Z,10.19
2023-05-14T06:09:24.029Z,10.20
2023-05-14T06:10:26.101Z,10.25
2023-05-14T06:11:28.331Z,10.26
2023-05-14T06:12:30.227Z,10.28
2023-05-14T06:13:32.110Z,10.29
2023-05-14T06:14:33.931Z,10.31
2023-05-14T06:15:35.914Z,10.34
2023-05-14T06:16:37.817Z,10.37
2023-05-14T06:17:39.879Z,10.41
2023-05-14T06:18:41.806Z,10.46
2023-05-14T06:19:43.739Z,10.49
2023-05-14T06:20:45.626Z,10.53
2023-05-14T06:21:47.464Z,10.54
2023-05-14T06:22:49.402Z,10.54
2023-05-14T06:23:51.381Z,10.54
2023-05-14T06:24:53.244Z,10.55
2023-05-14T06:25:55.222Z,10.56
2023-05-14T06:26:57.020Z,10.56
2023-05-14T06:27:58.805Z,10.55
2023-05-14T06:29:00.659Z,10.54
2023-05-14T06:30:02.462Z,10.48
2023-05-14T06:31:04.481Z,10.48
2023-05-14T06:32:06.686Z,10.51
2023-05-14T06:33:08.573Z,10.52
2023-05-14T06:34:11.011Z,10.51
2023-05-14T06:35:12.848Z,10.50
2023-05-14T06:36:14.786Z,10.51
2023-05-14T06:37:16.680Z,10.55
2023-05-14T06:38:18.502Z,10.60
2023-05-14T06:39:20.344Z,10.61
2023-05-14T06:40:22.490Z,10.61
2023-05-14T06:41:24.820Z,10.66
2023-05-14T06:42:26.849Z,10.68
2023-05-14T06:43:28.808Z,10.69
2023-05-14T06:44:30.824Z,10.65
2023-05-14T06:45:33.296Z,10.64
2023-05-14T06:46:35.485Z,10.65
2023-05-14T06:47:37.360Z,10.69
2023-05-14T06:48:39.350Z,10.70
2023-05-14T06:49:41.261Z,10.73
2023-05-14T06:50:43.043Z,10.77
2023-05-14T06:51:44.984Z,10.80
2023-05-14T06:52:47.219Z,10.84
2023-05-14T06:53:49.171Z,10.85
2023-05-14T06:54:51.015Z,10.84
2023-05-14T06:55:52.841Z,10.87
2023-05-14T06:56:54.726Z,10.93
2023-05-14T06:57:56.669Z,10.98
2023-05-14T06:58:58.482Z,11.01
2023-05-14T07:00:02.762Z,11.06
2023-05-14T07:01:05.413Z,11.08
2023-05-14T07:02:07.414Z,11.11
2023-05-14T07:03:09.346Z,11.16
2023-05-14T07:04:11.228Z,11.15
2023-05-14T07:05:13.489Z,11.12
2023-05-14T07:06:15.610Z,11.09
2023-05-14T07:07:20.815Z,11.07
2023-05-14T07:08:22.706Z,11.05
2023-05-14T07:09:24.545Z,11.06
2023-05-14T07:10:26.767Z,11.05
2023-05-14T07:11:28.984Z,11.03
2023-05-14T07:12:30.953Z,11.02
2023-05-14T07:13:32.755Z,11.09
2023-05-14T07:14:34.732Z,11.16
2023-05-14T07:15:36.635Z,11.22
2023-05-14T07:16:38.510Z,11.28
2023-05-14T07:17:40.754Z,11.32
2023-05-14T07:18:42.706Z,11.29
2023-05-14T07:19:44.602Z,11.26
2023-05-14T07:20:46.437Z,11.28
2023-05-14T07:21:48.309Z,11.31
2023-05-14T07:22:50.993Z,11.36
2023-05-14T07:23:52.842Z,11.41
2023-05-14T07:24:54.681Z,11.43
2023-05-14T07:25:56.538Z,11.44
2023-05-14T07:26:58.828Z,11.41
2023-05-14T07:28:00.904Z,11.41
2023-05-14T07:29:02.755Z,11.48
2023-05-14T07:30:04.784Z,11.53
2023-05-14T07:31:09.284Z,11.59
2023-05-14T07:32:12.269Z,11.63
2023-05-14T07:33:16.223Z,11.67
2023-05-14T07:34:18.225Z,11.71
2023-05-14T07:35:20.256Z,11.71
2023-05-14T07:36:22.143Z,11.72
2023-05-14T07:37:26.147Z,11.73
2023-05-14T07:38:28.230Z,11.70
2023-05-14T07:39:30.127Z,11.74
2023-05-14T07:40:32.474Z,11.75
2023-05-14T07:41:34.351Z,11.72
2023-05-14T07:42:37.284Z,11.69
2023-05-14T07:43:40.834Z,11.71
2023-05-14T07:44:42.722Z,11.73
2023-05-14T07:45:44.592Z,11.70
2023-05-14T07:46:46.431Z,11.70
2023-05-14T07:47:52.427Z,11.69
2023-05-14T07:48:54.638Z,11.71
2023-05-14T07:49:57.317Z,11.77
2023-05-14T07:50:59.151Z,11.81
2023-05-14T07:52:01.048Z,11.84
2023-05-14T07:53:02.898Z,11.86
2023-05-14T07:54:05.059Z,11.90
2023-05-14T07:55:07.236Z,11.88
2023-05-14T07:56:09.278Z,11.93
2023-05-14T07:57:11.255Z,11.99
2023-05-14T07:58:13.216Z,11.99
2023-05-14T07:59:15.202Z,12.00
2023-05-14T08:00:17.644Z,12.00
2023-05-14T08:01:19.799Z,12.03
2023-05-14T08:02:22.432Z,12.03
2023-05-14T08:03:24.829Z,12.07
2023-05-14T08:04:27.051Z,12.12
2023-05-14T08:05:28.979Z,12.17
2023-05-14T08:06:30.889Z,12.20
2023-05-14T08:07:33.914Z,12.22
2023-05-14T08:08:36.498Z,12.21
2023-05-14T08:09:38.405Z,12.18
2023-05-14T08:10:40.379Z,12.10
2023-05-14T08:11:42.278Z,12.07
2023-05-14T08:12:44.202Z,12.06
2023-05-14T08:13:46.032Z,12.03
2023-05-14T08:14:47.958Z,12.03
2023-05-14T08:15:49.863Z,12.08
2023-05-14T08:16:51.805Z,12.15
2023-05-14T08:17:53.759Z,12.26
2023-05-14T08:18:55.740Z,12.33
2023-05-14T08:19:57.784Z,12.41
2023-05-14T08:20:59.603Z,12.51
2023-05-14T08:22:01.612Z,12.55
2023-05-14T08:23:03.571Z,12.61
2023-05-14T08:24:05.693Z,12.67
2023-05-14T08:25:08.141Z,12.70
2023-05-14T08:26:10.108Z,12.73
2023-05-14T08:27:12.015Z,12.80
2023-05-14T08:28:13.841Z,12.82
2023-05-14T08:29:16.754Z,12.85
2023-05-14T08:30:18.818Z,12.87
2023-05-14T08:31:20.826Z,12.90
2023-05-14T08:32:23.821Z,12.93
2023-05-14T08:33:26.178Z,12.94
2023-05-14T08:34:29.142Z,12.99
2023-05-14T08:35:31.112Z,12.99
2023-05-14T08:36:33.129Z,13.00
2023-05-14T08:37:35.032Z,13.05
2023-05-14T08:38:36.872Z,13.06
2023-05-14T08:39:38.671Z,13.05
2023-05-14T08:40:40.695Z,13.06
2023-05-14T08:41:43.346Z,13.05
2023-05-14T08:42:45.339Z,13.06
2023-05-14T08:43:58.801Z,13.07
2023-05-14T08:45:04.443Z,13.10
2023-05-14T08:46:06.655Z,13.13
2023-05-14T08:47:08.691Z,13.16
2023-05-14T08:48:14.370Z,13.18
2023-05-14T08:49:18.925Z,13.20
2023-05-14T08:50:22.881Z,13.21
2023-05-14T08:51:26.952Z,13.24
2023-05-14T08:52:28.981Z,13.24
2023-05-14T08:53:31.718Z,13.24
2023-05-14T08:54:34.039Z,13.28
2023-05-14T08:55:37.538Z,13.29
2023-05-14T08:56:40.958Z,13.30
2023-05-14T08:57:42.830Z,13.31
2023-05-14T08:58:44.677Z,13.33
2023-05-14T08:59:48.785Z,13.33
2023-05-14T09:00:51.164Z,13.32
2023-05-14T09:01:54.249Z,13.38
2023-05-14T09:02:56.377Z,13.42
2023-05-14T09:03:58.968Z,13.44
2023-05-14T09:05:01.687Z,13.46
2023-05-14T09:06:04.337Z,13.49
2023-05-14T09:07:07.890Z,13.53
2023-05-14T09:08:09.837Z,13.54
2023-05-14T09:09:13.364Z,13.59
2023-05-14T09:10:15.992Z,13.63
2023-05-14T09:11:17.912Z,13.65
2023-05-14T09:12:20.260Z,13.65
2023-05-14T09:13:22.201Z,13.64
2023-05-14T09:14:24.416Z,13.66
2023-05-14T09:15:27.955Z,13.68
2023-05-14T09:16:29.995Z,13.70
2023-05-14T09:17:32.014Z,13.69
2023-05-14T09:18:35.795Z,13.67
2023-05-14T09:19:39.397Z,13.63
2023-05-14T09:20:41.396Z,13.58
2023-05-14T09:21:45.075Z,13.59
2023-05-14T09:22:47.073Z,13.57
2023-05-14T09:23:54.132Z,13.54
2023-05-14T09:25:22.302Z,13.58
2023-05-14T09:26:26.356Z,13.62
2023-05-14T09:27:29.927Z,13.65
2023-05-14T09:28:31.913Z,13.68
2023-05-14T09:29:34.651Z,13.71
2023-05-14T09:30:37.324Z,13.73
2023-05-14T09:31:39.317Z,13.75
2023-05-14T09:32:46.243Z,13.78
2023-05-14T09:33:51.656Z,13.80
2023-05-14T09:34:53.594Z,13.80
2023-05-14T09:35:58.472Z,13.82
2023-05-14T09:37:01.775Z,13.82
2023-05-14T09:38:03.629Z,13.85
2023-05-14T09:39:05.604Z,13.88
2023-05-14T09:40:09.422Z,13.89
2023-05-14T09:41:11.684Z,13.90
2023-05-14T09:42:13.531Z,13.92
2023-05-14T09:43:15.539Z,13.94
2023-05-14T09:44:17.585Z,13.96
2023-05-14T09:45:19.672Z,13.96
2023-05-14T09:46:22.118Z,13.97
2023-05-14T09:47:24.144Z,13.98
2023-05-14T09:48:26.202Z,13.99
2023-05-14T09:49:28.810Z,14.00
2023-05-14T09:50:30.856Z,14.00
2023-05-14T09:51:32.749Z,14.00
2023-05-14T09:52:35.143Z,14.01
2023-05-14T09:53:37.493Z,13.99
2023-05-14T09:54:40.348Z,13.94
2023-05-14T09:55:42.245Z,13.95
2023-05-14T09:56:44.529Z,13.93
2023-05-14T09:57:46.541Z,13.92
2023-05-14T09:58:48.453Z,13.92
2023-05-14T09:59:50.315Z,13.93
2023-05-14T10:00:52.233Z,13.92
2023-05-14T10:01:54.492Z,13.90
2023-05-14T10:02:58.184Z,13.88
2023-05-14T10:04:00.556Z,13.84
2023-05-14T10:05:04.362Z,13.83
2023-05-14T10:06:06.883Z,13.85
2023-05-14T10:07:09.705Z,13.87
2023-05-14T10:08:24.886Z,13.88
2023-05-14T10:09:28.602Z,13.89
2023-05-14T10:10:31.087Z,13.87
2023-05-14T10:11:34.102Z,13.87
2023-05-14T10:12:39.459Z,13.83
2023-05-14T10:13:42.905Z,13.78
2023-05-14T10:14:49.839Z,13.75
2023-05-14T10:15:54.829Z,13.75
2023-05-14T10:16:59.973Z,13.77
2023-05-14T10:18:04.508Z,13.80
2023-05-14T10:19:08.740Z,13.82
2023-05-14T10:20:14.497Z,13.83
2023-05-14T10:21:18.793Z,13.84
2023-05-14T10:22:23.475Z,13.84
2023-05-14T10:23:25.708Z,13.85
2023-05-14T10:24:27.845Z,13.85
2023-05-14T10:25:30.029Z,13.86
2023-05-14T10:26:39.479Z,13.87
2023-05-14T10:27:42.807Z,13.88
2023-05-14T10:28:45.171Z,13.87
2023-05-14T10:29:51.536Z,13.88
2023-05-14T10:30:54.381Z,13.88
2023-05-14T10:31:56.320Z,13.89
2023-05-14T10:33:11.970Z,13.85
2023-05-14T10:34:38.013Z,13.71
2023-05-14T10:35:53.017Z,13.65
2023-05-14T10:36:54.879Z,13.67
2023-05-14T10:37:57.039Z,13.69
2023-05-14T10:38:58.965Z,13.71
2023-05-14T10:40:02.710Z,13.68
2023-05-14T10:41:12.380Z,13.67
2023-05-14T10:42:18.698Z,13.65
2023-05-14T10:43:20.560Z,13.64
2023-05-14T10:44:22.946Z,13.65
2023-05-14T10:45:25.577Z,13.66
2023-05-14T10:46:27.588Z,13.68
2023-05-14T10:47:29.702Z,13.67
2023-05-14T10:48:32.371Z,13.69
2023-05-14T10:49:42.912Z,13.70
2023-05-14T10:50:48.500Z,13.68
2023-05-14T10:51:53.124Z,13.71
2023-05-14T10:52:55.692Z,13.75
2023-05-14T10:53:57.592Z,13.76
2023-05-14T10:55:03.167Z,13.80
2023-05-14T10:56:09.335Z,13.82
2023-05-14T10:57:14.310Z,13.83
2023-05-14T10:58:16.541Z,13.85
2023-05-14T10:59:18.401Z,13.75
2023-05-14T11:00:21.278Z,13.74
2023-05-14T11:01:24.418Z,13.73
2023-05-14T11:02:26.423Z,13.73
2023-05-14T11:03:33.222Z,13.73
2023-05-14T11:04:36.072Z,13.76
2023-05-14T11:05:40.532Z,13.70
2023-05-14T11:06:43.551Z,13.69
2023-05-14T11:07:46.490Z,13.69
2023-05-14T11:08:50.564Z,13.65
2023-05-14T11:09:53.004Z,13.66
2023-05-14T11:10:55.297Z,13.68
2023-05-14T11:11:57.158Z,13.71
2023-05-14T11:12:59.739Z,13.71
2023-05-14T11:14:01.605Z,13.74
2023-05-14T11:15:04.744Z,13.75
2023-05-14T11:17:12.322Z,13.71
2023-05-14T11:18:14.469Z,13.73
2023-05-14T11:19:18.207Z,13.72
2023-05-14T11:20:21.582Z,13.72
2023-05-14T11:21:23.676Z,13.72
2023-05-14T11:22:25.703Z,13.73
2023-05-14T11:23:28.100Z,13.71
2023-05-14T11:24:30.042Z,13.69
2023-05-14T11:25:31.959Z,13.70
2023-05-14T11:26:34.518Z,13.62
2023-05-14T11:27:38.022Z,13.49
2023-05-14T11:28:39.989Z,13.47
2023-05-14T11:29:46.515Z,13.47
2023-05-14T11:30:48.975Z,13.50
2023-05-14T11:31:50.953Z,13.56
2023-05-14T11:32:54.439Z,13.57
2023-05-14T11:33:56.450Z,13.57
2023-05-14T11:34:58.347Z,13.46
2023-05-14T11:36:00.244Z,13.40
2023-05-14T11:37:05.680Z,13.43
2023-05-14T11:38:09.197Z,13.45
2023-05-14T11:39:18.007Z,13.43
2023-05-14T11:40:20.300Z,13.44
2023-05-14T11:41:23.464Z,13.46
2023-05-14T11:42:26.081Z,13.46
2023-05-14T11:43:29.608Z,13.40
2023-05-14T11:44:34.418Z,13.38
2023-05-14T11:45:37.356Z,13.39
2023-05-14T11:46:39.328Z,13.41
2023-05-14T11:47:42.244Z,13.43
2023-05-14T11:48:44.185Z,13.43
2023-05-14T11:49:46.247Z,13.47
2023-05-14T11:50:52.242Z,13.45
2023-05-14T11:52:00.802Z,13.45
2023-05-14T11:53:02.700Z,13.48
2023-05-14T11:54:04.706Z,13.54
2023-05-14T11:55:06.909Z,13.55
2023-05-14T11:56:09.942Z,13.57
2023-05-14T11:57:13.504Z,13.61
2023-05-14T11:58:17.274Z,13.58
2023-05-14T11:59:19.637Z,13.59
2023-05-14T12:00:23.400Z,13.56
2023-05-14T12:01:25.797Z,13.52
2023-05-14T12:02:29.556Z,13.56
2023-05-14T12:03:31.697Z,13.59
2023-05-14T12:04:34.138Z,13.57
2023-05-14T12:05:37.963Z,13.49
2023-05-14T12:06:40.165Z,13.45
2023-05-14T12:07:44.841Z,13.40
2023-05-14T12:08:49.199Z,13.38
2023-05-14T12:09:51.108Z,13.43
2023-05-14T12:10:53.401Z,13.47
2023-05-14T12:11:55.288Z,13.44
2023-05-14T12:12:57.143Z,13.38
2023-05-14T12:14:01.985Z,13.39
2023-05-14T12:15:10.923Z,13.42
2023-05-14T12:16:13.234Z,13.47
2023-05-14T12:17:19.202Z,13.40
2023-05-14T12:18:24.916Z,13.35
2023-05-14T12:19:27.341Z,13.35
2023-05-14T12:20:29.871Z,13.38
2023-05-14T12:21:32.343Z,13.44
2023-05-14T12:22:36.854Z,13.48
2023-05-14T12:23:39.357Z,13.54
2023-05-14T12:24:41.651Z,13.58
2023-05-14T12:25:50.110Z,13.58
2023-05-14T12:26:52.989Z,13.54
2023-05-14T12:27:54.910Z,13.49
2023-05-14T12:29:03.895Z,13.48
2023-05-14T12:30:20.522Z,13.42
2023-05-14T12:31:34.945Z,13.43
2023-05-14T12:32:39.668Z,13.45
2023-05-14T12:33:41.594Z,13.46
2023-05-14T12:34:43.409Z,13.48
2023-05-14T12:35:45.249Z,13.47
2023-05-14T12:36:47.156Z,13.50
2023-05-14T12:37:48.979Z,13.46
2023-05-14T12:38:51.188Z,13.36
2023-05-14T12:39:53.075Z,13.34
2023-05-14T12:40:54.960Z,13.33
2023-05-14T12:41:56.820Z,13.30
2023-05-14T12:42:58.739Z,13.31
2023-05-14T12:44:00.789Z,13.31
2023-05-14T12:45:05.718Z,13.32
2023-05-14T12:46:07.613Z,13.32
2023-05-14T12:47:09.531Z,13.32
2023-05-14T12:48:11.616Z,13.28
2023-05-14T12:49:13.483Z,13.28
2023-05-14T12:50:15.402Z,13.26
2023-05-14T12:51:17.286Z,13.30
2023-05-14T12:52:29.369Z,13.28
2023-05-14T12:53:39.193Z,13.27
2023-05-14T12:54:42.969Z,13.24
2023-05-14T12:55:44.965Z,13.28
2023-05-14T12:56:47.019Z,13.27
2023-05-14T12:57:48.949Z,13.23
2023-05-14T12:58:50.945Z,13.15
2023-05-14T12:59:52.853Z,13.16
2023-05-14T13:00:55.023Z,13.17
2023-05-14T13:01:56.958Z,13.17
2023-05-14T13:02:58.784Z,13.11
2023-05-14T13:04:00.864Z,13.06
2023-05-14T13:05:03.785Z,13.00
2023-05-14T13:06:05.874Z,12.95
2023-05-14T13:07:09.140Z,12.94
2023-05-14T13:08:11.078Z,12.95
2023-05-14T13:09:12.994Z,12.85
2023-05-14T13:10:15.515Z,12.83
2023-05-14T13:11:17.525Z,12.85
2023-05-14T13:12:19.388Z,12.89
2023-05-14T13:13:21.321Z,12.93
2023-05-14T13:14:23.210Z,12.95
2023-05-14T13:15:25.378Z,12.91
2023-05-14T13:16:28.082Z,12.90
2023-05-14T13:17:30.103Z,12.89
2023-05-14T13:18:32.328Z,12.81
2023-05-14T13:19:34.276Z,12.80
2023-05-14T13:20:36.197Z,12.82
2023-05-14T13:21:38.188Z,12.85
2023-05-14T13:22:40.150Z,12.87
2023-05-14T13:23:42.033Z,12.88
2023-05-14T13:24:44.216Z,12.87
2023-05-14T13:25:48.473Z,12.81
2023-05-14T13:26:51.839Z,12.76
2023-05-14T13:27:53.761Z,12.76
2023-05-14T13:28:55.705Z,12.76
2023-05-14T13:29:58.141Z,12.70
2023-05-14T13:31:04.930Z,12.67
2023-05-14T13:32:07.127Z,12.64
2023-05-14T13:33:09.257Z,12.60
2023-05-14T13:34:11.169Z,12.55
2023-05-14T13:35:13.093Z,12.55
2023-05-14T13:36:15.402Z,12.54
2023-05-14T13:37:17.353Z,12.53
2023-05-14T13:38:19.247Z,12.50
2023-05-14T13:39:22.944Z,12.45
2023-05-14T13:40:24.830Z,12.39